Time;durP1;ratioP1;P1;durP2;ratioP2;P2;SDS_P1;SDS_P2;PMS_P1;PMS_P2;Temp;Humidity;BMP_temperature;BMP_pressure;BME280_temperature;BME280_humidity;BME280_pressure;Samples;Min_cycle;Max_cycle;Signal;HPM_P1;HPM_P2
2022/01/19 00:01:09;;;;;;;12.50;5.13;;;6.00;99.90;;;;;;5033352;28;20216;-75
2022/01/19 00:03:35;;;;;;;17.63;5.60;;;6.00;99.90;;;;;;5025619;28;20188;-75
2022/01/19 00:06:00;;;;;;;13.87;5.97;;;6.00;99.90;;;;;;5041971;28;20193;-75
2022/01/19 00:08:28;;;;;;;13.43;5.73;;;5.90;99.90;;;;;;5038337;28;20208;-75
2022/01/19 00:10:54;;;;;;;14.73;5.43;;;6.00;99.90;;;;;;5021398;28;20263;-75
2022/01/19 00:13:19;;;;;;;15.10;5.80;;;5.90;99.90;;;;;;5038996;28;20236;-75
2022/01/19 00:15:46;;;;;;;11.63;5.23;;;5.90;99.90;;;;;;5021384;28;20197;-75
2022/01/19 00:18:12;;;;;;;14.93;5.93;;;5.90;99.90;;;;;;5039331;28;20208;-75
2022/01/19 00:20:38;;;;;;;14.07;5.30;;;5.90;99.90;;;;;;5040164;28;20218;-75
2022/01/19 00:23:05;;;;;;;13.23;6.00;;;6.00;99.90;;;;;;5040728;28;20212;-75
2022/01/19 00:25:32;;;;;;;13.53;5.90;;;5.90;99.90;;;;;;5022277;28;20220;-76
2022/01/19 00:27:58;;;;;;;15.87;5.67;;;6.00;99.90;;;;;;5039829;28;20288;-76
2022/01/19 00:30:24;;;;;;;12.23;5.13;;;5.90;99.90;;;;;;5028641;28;20184;-76
2022/01/19 00:32:49;;;;;;;11.13;5.47;;;6.00;99.90;;;;;;5039686;28;20208;-76
2022/01/19 00:35:15;;;;;;;15.43;5.43;;;5.90;99.90;;;;;;5040213;28;20269;-75
2022/01/19 00:37:42;;;;;;;12.63;5.27;;;5.90;99.90;;;;;;5038788;28;20255;-75
2022/01/19 00:40:10;;;;;;;13.30;5.20;;;5.90;99.90;;;;;;5039354;28;20220;-75
2022/01/19 00:42:35;;;;;;;12.30;5.17;;;5.90;99.90;;;;;;5039344;28;20204;-75
2022/01/19 00:45:02;;;;;;;10.57;5.10;;;5.90;99.90;;;;;;5040596;28;20180;-75
2022/01/19 00:47:28;;;;;;;17.33;6.37;;;5.90;99.90;;;;;;5039728;28;20209;-76
2022/01/19 00:49:54;;;;;;;16.33;5.43;;;5.90;99.90;;;;;;5038395;28;20895;-76
2022/01/19 00:52:20;;;;;;;16.60;6.10;;;5.90;99.90;;;;;;5021387;28;20225;-76
2022/01/19 00:54:45;;;;;;;14.53;5.30;;;5.90;99.90;;;;;;5021331;28;20184;-76
2022/01/19 00:57:11;;;;;;;15.00;6.30;;;5.90;99.90;;;;;;5038637;28;20238;-76
2022/01/19 00:59:36;;;;;;;12.67;5.03;;;5.90;99.90;;;;;;5026304;28;20296;-76
2022/01/19 01:02:02;;;;;;;20.77;5.77;;;5.90;99.90;;;;;;5021033;28;20208;-76
2022/01/19 01:04:29;;;;;;;12.83;5.83;;;5.90;99.90;;;;;;5020636;28;20216;-76
2022/01/19 01:06:54;;;;;;;13.83;6.00;;;5.80;99.90;;;;;;5021168;28;20176;-76
2022/01/19 01:09:20;;;;;;;16.70;5.97;;;5.80;99.90;;;;;;5021517;28;20261;-76
2022/01/19 01:11:57;;;;;;;15.60;5.93;;;5.80;99.90;;;;;;5038810;28;20615;-75
2022/01/19 01:17:13;;;;;;;11.43;5.53;;;5.80;99.90;;;;;;5037981;28;20223;-76
2022/01/19 01:19:38;;;;;;;16.07;6.60;;;5.80;99.90;;;;;;5020810;28;20695;-76
2022/01/19 01:22:04;;;;;;;9.80;6.07;;;5.80;99.90;;;;;;5038503;28;20244;-76
2022/01/19 01:24:30;;;;;;;17.57;6.60;;;5.80;99.90;;;;;;5038694;28;20555;-76
2022/01/19 01:26:55;;;;;;;12.17;6.60;;;5.80;99.90;;;;;;5020105;28;20215;-76
2022/01/19 01:29:21;;;;;;;16.90;6.40;;;5.80;99.90;;;;;;5025419;28;20276;-74
2022/01/19 01:31:46;;;;;;;14.93;7.37;;;5.90;99.90;;;;;;5037983;28;20208;-76
2022/01/19 01:34:12;;;;;;;17.70;7.30;;;5.80;99.90;;;;;;5037988;28;20220;-76
2022/01/19 01:36:37;;;;;;;18.00;7.70;;;5.80;99.90;;;;;;5020243;28;20259;-76
2022/01/19 01:39:02;;;;;;;16.57;7.23;;;5.80;99.90;;;;;;5037848;28;20258;-76
2022/01/19 01:41:29;;;;;;;18.97;8.10;;;5.90;99.90;;;;;;5037334;28;20636;-76
2022/01/19 01:43:54;;;;;;;24.23;7.63;;;5.80;99.90;;;;;;5038261;28;20217;-76
2022/01/19 01:47:02;;;;;;;20.60;7.77;;;5.90;99.90;;;;;;5037999;28;20760;-76
2022/01/19 01:49:15;;;;;;;19.07;8.63;;;5.80;99.90;;;;;;5029794;28;20227;-78
2022/01/19 01:54:25;;;;;;;16.83;8.10;;;5.80;99.90;;;;;;5038728;28;20199;-76
2022/01/19 01:56:53;;;;;;;21.77;9.73;;;5.80;99.90;;;;;;5020055;28;20212;-77
2022/01/19 01:59:19;;;;;;;22.27;9.43;;;5.80;99.90;;;;;;5025469;28;20517;-78
2022/01/19 02:01:44;;;;;;;19.77;9.13;;;5.80;99.90;;;;;;5019829;28;20239;-74
2022/01/19 02:04:10;;;;;;;21.33;8.43;;;5.80;99.90;;;;;;5037773;28;20208;-76
2022/01/19 02:06:53;;;;;;;22.77;10.07;;;5.80;99.90;;;;;;5036898;28;20219;-75
2022/01/19 02:09:23;;;;;;;20.47;9.43;;;5.80;99.90;;;;;;5019911;28;20238;-75
2022/01/19 02:23:19;;;;;;;23.83;8.33;;;5.90;99.90;;;;;;5027051;28;20238;-76
2022/01/19 02:25:48;;;;;;;21.23;8.87;;;5.90;99.90;;;;;;5037176;28;20211;-75
2022/01/19 02:31:45;;;;;;;23.47;9.10;;;5.80;99.90;;;;;;5025150;28;20215;-77
2022/01/19 02:36:36;;;;;;;19.50;8.93;;;5.80;99.90;;;;;;5036846;28;20211;-76
2022/01/19 02:40:10;;;;;;;18.27;9.37;;;5.90;99.90;;;;;;5036274;28;20306;-76
2022/01/19 02:40:12;;;;;;;17.30;8.87;;;5.90;99.90;;;;;;5037250;28;20274;-76
2022/01/19 02:42:42;;;;;;;20.27;8.60;;;5.90;99.90;;;;;;5037280;28;20226;-76
2022/01/19 02:50:24;;;;;;;14.70;8.37;;;5.90;99.90;;;;;;5037354;28;20223;-75
2022/01/19 02:52:49;;;;;;;16.20;8.23;;;5.90;99.90;;;;;;5036151;28;20208;-76
2022/01/19 02:55:15;;;;;;;19.80;8.80;;;5.90;99.90;;;;;;5036697;28;20223;-76
2022/01/19 02:57:42;;;;;;;18.43;7.93;;;5.90;99.90;;;;;;5018528;28;20208;-76
2022/01/19 03:11:05;;;;;;;15.63;8.13;;;5.90;99.90;;;;;;5038143;28;20261;-75
2022/01/19 03:13:31;;;;;;;18.53;7.73;;;5.90;99.90;;;;;;5038966;28;20621;-75
2022/01/19 03:15:56;;;;;;;18.30;7.53;;;5.90;99.90;;;;;;5039553;28;20212;-75
2022/01/19 03:18:22;;;;;;;20.70;8.23;;;5.90;99.90;;;;;;5039249;28;20212;-74
2022/01/19 03:20:47;;;;;;;18.30;8.33;;;5.80;99.90;;;;;;5039764;28;20204;-76
2022/01/19 03:23:20;;;;;;;17.50;8.13;;;5.90;99.90;;;;;;5038722;28;20238;-75
2022/01/19 03:25:48;;;;;;;24.80;8.60;;;5.90;99.90;;;;;;5039621;28;20354;-75
2022/01/19 03:28:14;;;;;;;16.33;8.63;;;5.80;99.90;;;;;;5039331;28;20220;-75
2022/01/19 03:30:40;;;;;;;16.37;8.47;;;5.90;99.90;;;;;;5027569;28;20173;-75
2022/01/19 03:33:06;;;;;;;21.33;8.43;;;5.90;99.90;;;;;;5039696;28;20571;-75
2022/01/19 03:35:31;;;;;;;21.17;9.10;;;5.80;99.90;;;;;;5040677;28;20211;-75
2022/01/19 03:37:57;;;;;;;18.03;8.83;;;5.80;99.90;;;;;;5039429;28;20279;-75
2022/01/19 03:40:23;;;;;;;19.57;9.23;;;5.90;99.90;;;;;;5027788;28;20945;-75
2022/01/19 03:42:49;;;;;;;22.53;8.83;;;5.90;99.90;;;;;;5003891;28;20229;-75
2022/01/19 03:45:15;;;;;;;18.23;9.43;;;5.90;99.90;;;;;;5008065;28;20185;-75
2022/01/19 03:47:49;;;;;;;14.57;8.97;;;5.90;99.90;;;;;;5000663;28;20233;-75
2022/01/19 03:50:15;;;;;;;20.87;9.37;;;5.90;99.90;;;;;;5000911;28;20209;-75
2022/01/19 03:52:40;;;;;;;20.33;9.60;;;5.90;99.90;;;;;;4999902;28;20220;-75
2022/01/19 03:55:08;;;;;;;19.27;8.50;;;5.90;99.90;;;;;;5000580;28;20237;-75
2022/01/19 03:57:34;;;;;;;19.17;9.23;;;5.90;99.90;;;;;;4999804;28;20217;-76
2022/01/19 04:00:00;;;;;;;18.83;9.47;;;5.90;99.90;;;;;;5000835;28;20741;-75
2022/01/19 04:02:26;;;;;;;16.73;8.67;;;5.90;99.90;;;;;;5001023;28;20214;-75
2022/01/19 04:05:02;;;;;;;19.87;9.67;;;5.90;99.90;;;;;;5001720;28;20208;-74
2022/01/19 04:07:28;;;;;;;14.30;8.43;;;5.90;99.90;;;;;;5001043;28;20315;-74
2022/01/19 04:09:53;;;;;;;17.20;9.00;;;5.90;99.90;;;;;;5000864;28;20182;-75
2022/01/19 04:12:30;;;;;;;17.70;8.50;;;5.90;99.90;;;;;;5006553;28;20550;-75
2022/01/19 04:14:56;;;;;;;18.43;8.70;;;5.80;99.90;;;;;;5001738;28;20619;-75
2022/01/19 04:17:21;;;;;;;20.10;9.70;;;5.90;99.90;;;;;;5000959;28;20217;-72
2022/01/19 04:19:48;;;;;;;18.47;9.03;;;5.90;99.90;;;;;;5001649;28;20639;-75
2022/01/19 04:22:18;;;;;;;16.50;8.80;;;5.90;99.90;;;;;;5001172;28;20223;-74
2022/01/19 04:24:48;;;;;;;17.73;8.97;;;5.90;99.90;;;;;;4983819;28;20177;-74
2022/01/19 04:29:52;;;;;;;15.67;8.63;;;5.90;99.90;;;;;;4999517;28;20206;-75
2022/01/19 04:32:28;;;;;;;17.83;10.40;;;5.80;99.90;;;;;;4999748;28;20224;-73
2022/01/19 04:34:54;;;;;;;24.53;9.77;;;5.80;99.90;;;;;;5006981;28;20209;-75
2022/01/19 04:48:17;;;;;;;18.93;9.67;;;5.70;99.90;;;;;;4999143;28;20414;-75
2022/01/19 05:01:46;;;;;;;24.73;10.70;;;5.60;99.90;;;;;;5007658;28;20233;-75
2022/01/19 05:06:54;;;;;;;18.30;10.97;;;5.60;99.90;;;;;;5000681;28;20173;-74
2022/01/19 05:13:23;;;;;;;23.67;11.50;;;5.60;99.90;;;;;;4982351;28;20184;-75
2022/01/19 05:14:53;;;;;;;19.07;10.17;;;5.60;99.90;;;;;;4998806;28;20205;-75
2022/01/19 05:17:18;;;;;;;17.93;10.13;;;5.60;99.90;;;;;;4987734;28;20217;-75
2022/01/19 05:19:44;;;;;;;24.17;11.70;;;5.60;99.90;;;;;;4998044;28;20204;-75
2022/01/19 05:22:09;;;;;;;17.63;10.60;;;5.60;99.90;;;;;;4997738;28;20303;-75
2022/01/19 05:24:35;;;;;;;23.93;11.43;;;5.70;99.90;;;;;;4997935;28;20284;-75
2022/01/19 05:27:00;;;;;;;17.63;11.00;;;5.60;99.90;;;;;;4980571;28;20244;-75
2022/01/19 05:29:26;;;;;;;28.73;11.03;;;5.60;99.90;;;;;;4980456;28;20229;-74
2022/01/19 05:31:51;;;;;;;21.90;11.10;;;5.70;99.90;;;;;;5005892;28;20209;-75
2022/01/19 05:34:16;;;;;;;18.30;10.23;;;5.60;99.90;;;;;;4997964;28;20253;-75
2022/01/19 05:36:42;;;;;;;18.77;10.53;;;5.60;99.90;;;;;;4979588;28;20201;-75
2022/01/19 05:39:07;;;;;;;22.87;10.00;;;5.60;99.90;;;;;;4998113;28;20199;-75
2022/01/19 05:41:33;;;;;;;23.63;11.10;;;5.60;99.90;;;;;;4999279;28;20217;-75
2022/01/19 05:43:59;;;;;;;21.83;11.13;;;5.60;99.90;;;;;;5015621;23;20595;-75
2022/01/19 05:46:24;;;;;;;21.17;10.90;;;5.60;99.90;;;;;;5050974;28;20219;-75
2022/01/19 05:48:50;;;;;;;19.57;11.43;;;5.60;99.90;;;;;;5050839;28;20172;-74
2022/01/19 05:51:15;;;;;;;29.77;12.07;;;5.50;99.90;;;;;;5051483;28;20185;-74
2022/01/19 05:53:41;;;;;;;20.37;11.17;;;5.50;99.90;;;;;;5029495;28;20300;-75
2022/01/19 05:56:07;;;;;;;22.50;12.43;;;5.50;99.90;;;;;;5010746;28;20685;-76
2022/01/19 05:58:33;;;;;;;19.50;11.73;;;5.50;99.90;;;;;;5015525;28;20267;-77
2022/01/19 06:00:58;;;;;;;25.20;11.27;;;5.50;99.90;;;;;;5029888;28;20220;-75
2022/01/19 06:03:25;;;;;;;22.70;11.30;;;5.50;99.90;;;;;;5031074;28;20210;-74
2022/01/19 06:05:50;;;;;;;23.20;12.33;;;5.50;99.90;;;;;;5031107;28;20246;-73
2022/01/19 06:10:54;;;;;;;20.23;12.37;;;5.50;99.90;;;;;;5031230;28;20215;-75
2022/01/19 06:13:21;;;;;;;25.17;12.17;;;5.50;99.90;;;;;;5030659;28;20697;-75
2022/01/19 06:15:49;;;;;;;19.63;11.57;;;5.50;99.90;;;;;;5031032;28;20184;-75
2022/01/19 06:18:16;;;;;;;22.27;11.63;;;5.60;99.90;;;;;;5030714;28;20210;-75
2022/01/19 06:20:41;;;;;;;19.90;12.20;;;5.60;99.90;;;;;;5029510;28;20207;-75
2022/01/19 06:23:07;;;;;;;25.30;12.57;;;5.50;99.90;;;;;;5022851;28;20226;-75
2022/01/19 06:25:33;;;;;;;27.20;12.50;;;5.50;99.90;;;;;;5025995;28;20216;-75
2022/01/19 06:27:59;;;;;;;23.67;12.03;;;5.50;99.90;;;;;;5021944;28;20216;-77
2022/01/19 06:30:25;;;;;;;23.53;12.03;;;5.50;99.90;;;;;;5029893;28;20188;-75
2022/01/19 06:32:51;;;;;;;26.23;12.60;;;5.50;99.90;;;;;;5030240;28;20204;-75
2022/01/19 06:35:16;;;;;;;27.73;13.43;;;5.50;99.90;;;;;;5030604;28;20223;-75
2022/01/19 06:37:42;;;;;;;21.67;12.13;;;5.50;99.90;;;;;;5029799;28;20223;-75
2022/01/19 06:40:11;;;;;;;23.87;12.27;;;5.50;99.90;;;;;;5023004;28;20220;-76
2022/01/19 06:42:37;;;;;;;27.03;12.03;;;5.50;99.90;;;;;;5029237;28;20188;-75
2022/01/19 06:45:04;;;;;;;25.17;12.80;;;5.50;99.90;;;;;;5030966;28;20223;-75
2022/01/19 06:47:30;;;;;;;22.47;12.50;;;5.50;99.90;;;;;;5019448;28;20307;-75
2022/01/19 06:49:56;;;;;;;27.03;11.80;;;5.50;99.90;;;;;;5026037;28;20208;-75
2022/01/19 06:52:21;;;;;;;25.10;13.67;;;5.50;99.90;;;;;;5034394;28;20645;-74
2022/01/19 06:54:47;;;;;;;22.70;12.23;;;5.50;99.90;;;;;;5031045;28;20210;-75
2022/01/19 06:57:12;;;;;;;26.27;13.30;;;5.50;99.90;;;;;;5029858;28;20282;-75
2022/01/19 06:59:38;;;;;;;24.10;11.70;;;5.50;99.90;;;;;;5034462;28;20213;-75
2022/01/19 07:02:04;;;;;;;18.47;11.77;;;5.50;99.90;;;;;;5032988;28;20212;-78
2022/01/19 07:04:30;;;;;;;21.90;11.20;;;5.50;99.90;;;;;;5033073;28;20219;-76
2022/01/19 07:06:55;;;;;;;20.97;10.90;;;5.50;99.90;;;;;;5026267;28;20223;-76
2022/01/19 07:09:21;;;;;;;19.00;9.90;;;5.50;99.90;;;;;;5034467;28;20266;-75
2022/01/19 07:11:46;;;;;;;19.77;9.63;;;5.40;99.90;;;;;;5030650;28;20684;-75
2022/01/19 07:14:13;;;;;;;19.13;9.43;;;5.40;99.90;;;;;;5019943;28;20235;-75
2022/01/19 07:16:40;;;;;;;23.40;9.83;;;5.40;99.90;;;;;;5033982;28;20231;-75
2022/01/19 07:19:05;;;;;;;22.00;9.80;;;5.40;99.90;;;;;;5032255;28;20208;-75
2022/01/19 07:21:31;;;;;;;18.70;9.13;;;5.40;99.90;;;;;;5034490;28;20298;-76
2022/01/19 07:23:56;;;;;;;16.90;8.57;;;5.40;99.90;;;;;;5032631;28;20216;-76
2022/01/19 07:26:22;;;;;;;15.97;8.57;;;5.40;99.90;;;;;;5033861;28;20208;-77
2022/01/19 07:28:48;;;;;;;20.43;8.97;;;5.40;99.90;;;;;;5028143;28;20204;-75
2022/01/19 07:31:14;;;;;;;17.87;8.63;;;5.30;99.90;;;;;;5021471;28;20223;-75
2022/01/19 07:33:39;;;;;;;19.40;8.10;;;5.30;99.90;;;;;;5033617;28;20658;-76
2022/01/19 07:36:05;;;;;;;20.20;8.27;;;5.30;99.90;;;;;;5025177;28;20169;-75
2022/01/19 07:38:30;;;;;;;15.00;7.20;;;5.40;99.90;;;;;;5025297;28;20224;-75
2022/01/19 07:40:56;;;;;;;14.97;7.37;;;5.40;99.90;;;;;;5026025;28;20223;-75
2022/01/19 07:43:21;;;;;;;14.83;8.40;;;5.50;99.90;;;;;;5032181;28;20652;-75
2022/01/19 07:45:47;;;;;;;12.87;6.90;;;5.50;99.90;;;;;;5032723;28;20190;-75
2022/01/19 07:48:13;;;;;;;17.07;7.23;;;5.60;99.90;;;;;;5025327;28;20192;-76
2022/01/19 07:50:39;;;;;;;14.70;7.60;;;5.60;99.90;;;;;;5032922;28;20217;-75
2022/01/19 07:53:05;;;;;;;15.17;7.60;;;5.70;99.90;;;;;;5033391;28;20227;-76
2022/01/19 07:55:31;;;;;;;16.07;7.33;;;5.90;99.90;;;;;;5033825;28;20216;-77
2022/01/19 07:57:56;;;;;;;15.37;7.30;;;6.10;99.90;;;;;;5032729;28;20232;-75
2022/01/19 08:00:22;;;;;;;15.13;6.43;;;6.50;99.90;;;;;;5033651;28;20192;-75
2022/01/19 08:02:49;;;;;;;18.43;8.13;;;7.10;99.90;;;;;;5033303;28;20235;-75
2022/01/19 08:05:15;;;;;;;19.03;7.07;;;7.80;99.90;;;;;;5033505;28;20361;-75
2022/01/19 08:07:41;;;;;;;14.57;6.63;;;8.50;99.90;;;;;;5025059;28;20220;-75
2022/01/19 08:10:08;;;;;;;12.67;6.30;;;9.20;99.90;;;;;;5032046;28;20231;-75
2022/01/19 08:12:34;;;;;;;17.40;6.27;;;9.30;99.90;;;;;;5032297;28;20192;-77
2022/01/19 08:15:00;;;;;;;17.37;6.70;;;9.40;99.90;;;;;;5032085;28;20212;-75
2022/01/19 08:17:27;;;;;;;15.87;6.47;;;9.50;99.90;;;;;;5032799;28;20226;-76
2022/01/19 08:19:56;;;;;;;13.60;6.63;;;9.10;99.90;;;;;;5031855;28;20657;-77
2022/01/19 08:22:22;;;;;;;15.03;6.00;;;8.80;99.90;;;;;;5032880;28;20216;-76
2022/01/19 08:24:47;;;;;;;17.33;6.13;;;8.60;99.90;;;;;;5028310;28;20224;-76
2022/01/19 08:27:13;;;;;;;12.33;5.13;;;8.10;99.90;;;;;;5020425;28;20666;-76
2022/01/19 08:29:39;;;;;;;9.10;5.47;;;7.90;99.90;;;;;;5023081;28;20686;-77
2022/01/19 08:32:05;;;;;;;9.27;5.97;;;8.10;99.90;;;;;;5032626;28;20273;-76
2022/01/19 08:34:31;;;;;;;12.33;6.00;;;8.30;99.90;;;;;;5032621;28;20232;-77
2022/01/19 08:36:57;;;;;;;12.17;6.63;;;8.30;99.90;;;;;;5032885;28;20231;-75
2022/01/19 08:39:24;;;;;;;12.90;6.43;;;8.50;99.90;;;;;;5032928;28;20189;-76
2022/01/19 08:41:50;;;;;;;11.53;6.33;;;8.40;99.90;;;;;;5018843;28;20216;-76
2022/01/19 08:44:16;;;;;;;14.43;6.43;;;8.40;99.90;;;;;;5020351;28;20285;-75
2022/01/19 08:46:41;;;;;;;10.67;5.63;;;8.50;99.90;;;;;;5032451;28;20223;-76
2022/01/19 08:49:07;;;;;;;12.70;6.13;;;8.60;99.90;;;;;;5031109;28;20224;-75
2022/01/19 08:51:32;;;;;;;9.33;5.70;;;8.10;99.90;;;;;;5032879;28;20683;-76
2022/01/19 08:53:58;;;;;;;11.40;5.73;;;8.00;99.90;;;;;;5032609;28;20216;-76
2022/01/19 08:56:23;;;;;;;9.93;5.20;;;8.20;99.90;;;;;;5024208;28;20299;-76
2022/01/19 08:58:49;;;;;;;10.33;5.60;;;8.00;99.90;;;;;;5023544;28;20295;-76
2022/01/19 09:01:15;;;;;;;8.20;5.50;;;8.20;99.90;;;;;;5031195;28;20212;-75
2022/01/19 09:03:40;;;;;;;12.50;5.60;;;8.30;99.90;;;;;;5032013;28;20204;-75
2022/01/19 09:06:06;;;;;;;10.10;5.93;;;8.30;99.90;;;;;;5023605;28;20685;-75
2022/01/19 09:08:34;;;;;;;10.63;6.03;;;8.20;99.90;;;;;;5028976;28;20224;-77
2022/01/19 09:11:00;;;;;;;14.53;6.00;;;8.40;99.90;;;;;;5011870;28;20634;-75
2022/01/19 09:13:26;;;;;;;10.70;6.10;;;8.00;99.90;;;;;;5027238;28;20216;-76
2022/01/19 09:15:52;;;;;;;11.77;6.27;;;8.10;99.90;;;;;;5012678;28;20165;-76
2022/01/19 09:18:18;;;;;;;9.10;5.13;;;8.10;99.90;;;;;;5019344;28;20591;-76
2022/01/19 09:20:43;;;;;;;11.13;6.00;;;8.00;99.90;;;;;;5023514;28;20204;-75
2022/01/19 09:23:09;;;;;;;11.43;6.13;;;8.00;99.90;;;;;;5031863;28;20200;-77
2022/01/19 09:25:34;;;;;;;10.03;6.37;;;8.10;99.90;;;;;;5032121;28;20208;-76
2022/01/19 09:28:00;;;;;;;12.73;6.57;;;7.90;99.90;;;;;;5020588;28;20562;-76
2022/01/19 09:30:26;;;;;;;10.53;6.03;;;8.00;99.90;;;;;;5028294;28;20327;-75
2022/01/19 09:33:05;;;;;;;12.07;6.53;;;8.30;99.90;;;;;;5013343;28;21026;-74
2022/01/19 09:35:39;;;;;;;11.57;6.73;;;8.40;99.90;;;;;;5042113;28;20215;-75
2022/01/19 09:38:05;;;;;;;13.37;6.13;;;8.30;99.90;;;;;;5039694;28;20844;-75
2022/01/19 09:40:31;;;;;;;10.17;5.37;;;8.40;99.90;;;;;;5030679;28;20212;-75
2022/01/19 09:42:56;;;;;;;10.80;6.07;;;8.50;99.90;;;;;;5031663;28;20227;-76
2022/01/19 09:45:22;;;;;;;10.83;6.53;;;8.40;99.90;;;;;;5030790;28;20282;-76
2022/01/19 09:47:47;;;;;;;15.17;7.00;;;8.30;99.90;;;;;;5018118;28;20243;-76
2022/01/19 09:50:13;;;;;;;11.50;6.27;;;8.20;99.90;;;;;;5019444;28;20215;-76
2022/01/19 09:52:39;;;;;;;12.03;6.30;;;8.40;99.90;;;;;;5029900;28;20224;-76
2022/01/19 09:55:06;;;;;;;10.37;6.40;;;8.60;99.90;;;;;;5031636;28;20215;-76
2022/01/19 09:57:33;;;;;;;10.63;5.60;;;8.50;99.90;;;;;;5031209;28;20224;-76
2022/01/19 09:59:59;;;;;;;12.03;7.00;;;8.30;99.90;;;;;;5031382;28;20219;-76
2022/01/19 10:02:25;;;;;;;10.20;5.80;;;8.50;99.90;;;;;;5029874;28;20681;-77
2022/01/19 10:04:51;;;;;;;12.07;6.30;;;8.60;99.90;;;;;;5029979;28;20209;-76
2022/01/19 10:07:22;;;;;;;14.47;8.47;;;8.60;99.90;;;;;;5030096;28;20236;-76
2022/01/19 10:10:08;;;;;;;10.83;6.83;;;8.40;99.90;;;;;;5030989;28;20176;-76
2022/01/19 10:18:18;;;;;;;12.30;7.77;;;8.00;99.90;;;;;;5050801;28;20211;-76
2022/01/19 10:20:46;;;;;;;11.03;7.70;;;8.10;99.90;;;;;;5050936;28;20313;-76
2022/01/19 10:23:33;;;;;;;12.53;7.97;;;8.00;99.90;;;;;;5049281;28;20215;-76
2022/01/19 10:25:59;;;;;;;12.53;8.30;;;7.90;99.90;;;;;;5051303;28;20207;-76
2022/01/19 10:28:25;;;;;;;15.77;8.90;;;8.00;99.90;;;;;;5056061;28;20586;-76
2022/01/19 10:30:52;;;;;;;13.63;8.70;;;8.00;99.90;;;;;;5069679;28;20174;-76
2022/01/19 10:33:18;;;;;;;13.03;8.93;;;7.70;99.90;;;;;;5071758;28;20209;-76
2022/01/19 10:35:47;;;;;;;13.40;8.70;;;7.60;99.90;;;;;;5070950;28;20199;-76
2022/01/19 10:38:25;;;;;;;14.47;8.63;;;7.70;99.90;;;;;;5070349;28;20297;-76
2022/01/19 10:41:01;;;;;;;13.17;8.57;;;7.90;99.90;;;;;;5069731;28;20237;-76
2022/01/19 10:43:34;;;;;;;13.87;8.87;;;7.80;99.90;;;;;;5070355;28;20242;-76
2022/01/19 10:46:21;;;;;;;16.43;10.63;;;7.80;99.90;;;;;;5071350;28;20265;-77
2022/01/19 10:48:46;;;;;;;14.80;9.47;;;7.80;99.90;;;;;;5070263;28;20182;-75
2022/01/19 10:51:15;;;;;;;14.90;10.33;;;7.70;99.90;;;;;;5071353;28;20183;-77
2022/01/19 10:53:44;;;;;;;14.97;11.10;;;7.50;99.90;;;;;;5070579;28;20211;-76
2022/01/19 10:56:24;;;;;;;26.57;12.10;;;7.40;99.90;;;;;;5069507;28;20225;-74
2022/01/19 10:58:54;;;;;;;19.23;12.37;;;7.10;99.90;;;;;;5068029;28;20218;-76
2022/01/19 11:01:38;;;;;;;17.17;12.50;;;6.80;99.90;;;;;;5071832;28;20219;-76
2022/01/19 11:04:21;;;;;;;18.80;13.07;;;6.80;99.90;;;;;;5069629;28;20325;-76
2022/01/19 11:06:49;;;;;;;18.13;12.63;;;7.00;99.90;;;;;;5070865;28;20197;-76
2022/01/19 11:09:15;;;;;;;19.93;13.03;;;7.20;99.90;;;;;;5070918;28;20679;-76
2022/01/19 11:11:44;;;;;;;20.23;13.57;;;7.20;99.90;;;;;;5070625;28;20238;-76
2022/01/19 11:14:15;;;;;;;22.07;14.73;;;6.80;99.90;;;;;;5070723;28;20321;-77
2022/01/19 11:16:42;;;;;;;22.10;13.60;;;6.70;99.90;;;;;;5070416;28;20325;-76
2022/01/19 11:19:08;;;;;;;18.63;13.57;;;6.60;99.90;;;;;;5069035;28;20223;-75
2022/01/19 11:21:44;;;;;;;19.40;13.87;;;6.70;99.90;;;;;;5070887;28;20632;-75
2022/01/19 11:24:21;;;;;;;20.90;14.43;;;6.40;99.90;;;;;;5069404;28;20750;-76
2022/01/19 11:26:47;;;;;;;22.23;15.57;;;6.60;99.90;;;;;;5069314;28;20211;-76
2022/01/19 11:29:21;;;;;;;22.83;14.40;;;6.40;99.90;;;;;;5067534;28;20207;-77
2022/01/19 11:31:48;;;;;;;21.83;14.83;;;6.20;99.90;;;;;;5062343;28;20218;-75
2022/01/19 11:34:14;;;;;;;25.37;17.03;;;6.40;99.90;;;;;;5069769;28;20221;-74
2022/01/19 11:36:42;;;;;;;25.70;16.37;;;6.30;99.90;;;;;;5073999;28;20187;-77
2022/01/19 11:39:20;;;;;;;28.30;17.07;;;6.50;99.90;;;;;;5073168;28;20183;-77
2022/01/19 11:41:55;;;;;;;26.57;17.37;;;6.40;99.90;;;;;;5065840;28;20683;-77
2022/01/19 11:44:33;;;;;;;25.20;15.77;;;6.10;99.90;;;;;;5086312;23;20318;-71
2022/01/19 11:47:17;;;;;;;24.93;16.07;;;5.90;99.90;;;;;;5042212;28;20212;-70
2022/01/19 11:49:51;;;;;;;26.67;16.27;;;5.60;99.90;;;;;;5044934;28;20585;-71
2022/01/19 11:52:20;;;;;;;27.10;17.57;;;5.50;99.90;;;;;;5047759;28;20231;-71
2022/01/19 11:54:47;;;;;;;24.70;16.73;;;5.80;99.90;;;;;;5031404;28;20228;-70
2022/01/19 11:57:33;;;;;;;32.20;18.10;;;5.70;99.90;;;;;;5031889;28;20203;-70
2022/01/19 12:00:08;;;;;;;31.53;20.17;;;5.50;99.90;;;;;;5032858;28;20224;-71
2022/01/19 12:02:40;;;;;;;32.13;19.60;;;5.40;99.90;;;;;;5033116;28;20203;-70
2022/01/19 12:05:07;;;;;;;34.77;20.13;;;5.50;99.90;;;;;;5032233;28;20239;-70
2022/01/19 12:07:53;;;;;;;30.43;19.70;;;5.70;99.90;;;;;;5033084;28;20295;-70
2022/01/19 12:10:44;;;;;;;27.60;18.90;;;5.70;99.90;;;;;;5031541;28;20228;-70
2022/01/19 12:13:43;;;;;;;34.47;20.17;;;5.50;99.90;;;;;;5033323;28;20216;-70
2022/01/19 12:16:49;;;;;;;29.10;18.70;;;5.80;99.90;;;;;;5033219;28;20212;-70
2022/01/19 12:19:19;;;;;;;23.30;15.73;;;5.90;99.90;;;;;;5032658;28;20219;-70
2022/01/19 12:21:48;;;;;;;25.23;14.97;;;5.80;99.90;;;;;;5031710;28;20176;-70
2022/01/19 12:24:29;;;;;;;24.33;14.87;;;5.60;99.90;;;;;;5033358;28;20197;-70
2022/01/19 12:27:05;;;;;;;21.87;14.27;;;5.60;99.90;;;;;;5032790;28;20216;-70
2022/01/19 12:29:33;;;;;;;19.77;13.97;;;5.60;99.90;;;;;;5030698;28;20212;-72
2022/01/19 12:32:17;;;;;;;16.90;12.60;;;5.50;99.90;;;;;;5032893;28;20621;-70
2022/01/19 12:34:49;;;;;;;19.47;13.67;;;5.70;99.90;;;;;;5031261;28;20589;-76
2022/01/19 12:37:37;;;;;;;19.13;13.53;;;5.30;99.90;;;;;;5032544;28;20700;-71
2022/01/19 12:40:18;;;;;;;18.23;13.13;;;5.30;99.90;;;;;;5031152;28;20214;-71
2022/01/19 12:42:51;;;;;;;18.97;13.20;;;5.30;99.90;;;;;;5031345;28;20184;-71
2022/01/19 12:45:33;;;;;;;18.80;13.00;;;5.10;99.90;;;;;;5032506;28;20601;-70
2022/01/19 12:48:00;;;;;;;20.37;14.17;;;5.10;99.90;;;;;;5030088;28;20211;-72
2022/01/19 12:50:28;;;;;;;21.10;14.63;;;5.20;99.90;;;;;;5032382;28;20643;-71
2022/01/19 12:53:00;;;;;;;21.10;14.70;;;5.40;99.90;;;;;;5032468;28;20202;-71
2022/01/19 12:55:29;;;;;;;26.13;17.27;;;5.40;99.90;;;;;;5032563;28;20220;-71
2022/01/19 12:57:56;;;;;;;24.03;17.50;;;5.30;99.90;;;;;;5029392;28;20261;-71
2022/01/19 13:00:25;;;;;;;24.13;17.17;;;5.30;99.90;;;;;;5031710;28;20176;-71
2022/01/19 13:02:51;;;;;;;22.77;17.27;;;5.40;99.90;;;;;;5030564;28;20211;-71
2022/01/19 13:05:20;;;;;;;23.03;17.13;;;5.50;99.90;;;;;;5032498;28;20214;-71
2022/01/19 13:07:57;;;;;;;24.37;17.13;;;5.50;99.90;;;;;;5031636;28;20200;-71
2022/01/19 13:10:46;;;;;;;24.60;17.47;;;5.60;99.90;;;;;;5031125;28;20224;-71
2022/01/19 13:13:32;;;;;;;23.00;16.73;;;5.50;99.90;;;;;;5032087;28;20566;-72
2022/01/19 13:16:00;;;;;;;21.17;15.80;;;5.50;99.90;;;;;;5031860;28;20685;-71
2022/01/19 13:18:37;;;;;;;20.83;14.83;;;5.40;99.90;;;;;;5030921;28;20226;-71
2022/01/19 13:21:09;;;;;;;16.50;14.13;;;5.50;99.90;;;;;;5051213;28;20281;-71
2022/01/19 13:23:53;;;;;;;21.73;15.63;;;5.40;99.90;;;;;;5051432;28;20214;-71
2022/01/19 13:26:19;;;;;;;14.03;11.37;;;5.30;99.90;;;;;;5051924;28;20290;-71
2022/01/19 13:28:44;;;;;;;14.77;11.57;;;5.20;99.90;;;;;;5043562;28;20337;-71
2022/01/19 13:31:10;;;;;;;14.17;10.87;;;5.30;99.90;;;;;;5052135;28;20239;-72
2022/01/19 13:33:35;;;;;;;12.83;10.60;;;5.20;99.90;;;;;;5050830;28;20221;-71
2022/01/19 13:36:02;;;;;;;15.83;11.40;;;5.20;99.90;;;;;;5050581;28;20208;-71
2022/01/19 13:38:28;;;;;;;12.47;10.37;;;5.30;99.90;;;;;;5049051;28;20306;-71
2022/01/19 13:41:09;;;;;;;14.77;9.97;;;5.20;99.90;;;;;;5051738;28;20207;-71
2022/01/19 13:43:38;;;;;;;11.73;10.27;;;5.30;99.90;;;;;;5051456;28;20219;-71
2022/01/19 13:46:15;;;;;;;12.57;9.60;;;5.20;99.90;;;;;;5051741;28;20285;-71
2022/01/19 13:48:47;;;;;;;12.10;10.13;;;5.20;99.90;;;;;;5050088;28;20187;-71
2022/01/19 13:51:14;;;;;;;12.37;9.33;;;5.20;99.90;;;;;;5052009;28;20679;-71
2022/01/19 13:53:43;;;;;;;12.63;9.43;;;5.20;99.90;;;;;;5051375;28;20260;-71
2022/01/19 13:56:15;;;;;;;11.90;8.70;;;5.30;99.90;;;;;;5051648;28;20210;-72
2022/01/19 13:59:09;;;;;;;15.30;9.23;;;5.20;99.90;;;;;;5041370;28;20226;-71
2022/01/19 14:01:49;;;;;;;14.30;10.63;;;5.30;99.90;;;;;;5023196;28;20306;-71
2022/01/19 14:04:15;;;;;;;9.60;7.77;;;5.20;99.90;;;;;;5031209;28;20216;-72
2022/01/19 14:06:44;;;;;;;9.87;7.70;;;5.10;99.90;;;;;;5031334;28;20191;-71